Allegan, MI

6:20 AM EST on December 21, 2014 (GMT -0500)
Allegan | Change Station
CLOSE
Current Station
Personal Weather Station
Location: Allegan, MI
Elevation: 633 ft
Nearby Weather Stations

Elev 633 ft 42.54 °N, 85.87 °W | Updated 4 minutes ago

Overcast
Overcast
29.4 °F
Feels Like 29 °F
N
0.0
Wind Variable Wind from South
Gusts 3.0 mph

Today
High -- | Low -- °F
--% Chance of Precip.
Yesterday
High -- | Low -- °F
Precip. -- in
8:09 AM 5:13 PM
Waning Crescent, 0% visible
Pressure 30.28 in
Visibility 8.0 miles
Clouds Overcast 1600 ft
Windchill 29 °F
Dew Point 27 °F
Humidity 91%
Rainfall 0.00 in
Snow Depth Not available.
UV 0 out of 12
Pollen .10 out of 12
Air Quality Not available.
Flu Activity Not available.
METAR KBIV 211053Z AUTO 17007KT 8SM OVC016 00/M03 A3025 RMK AO2 SLP252 T00001028

More Conditions Fewer Conditions

Pressure 30.28 in
Visibility 8.0 miles
Clouds Overcast 1600 ft
Windchill 29 °F
Dew Point 27 °F
Humidity 91%
Rainfall 0.00 in
Snow Depth Not available.
UV 0 out of 12
Pollen .10 out of 12
Air Quality Not available.
Flu Activity Not available.
METAR KBIV 211053Z AUTO 17007KT 8SM OVC016 00/M03 A3025 RMK AO2 SLP252 T00001028

More Conditions Fewer Conditions

10-Day Weather Forecast

Almanac

Astronomy

Dec. 21, 2014 Rise Set
Actual Time
Civil Twilight
Nautical Twilight
Astronomical Twilight
Moon
Length of Visible Light
Length of Day
Tomorrow will be .
, % of the Moon is Illuminated

Today's Extremes

State Highs State Lows

Community

WunderPhotos

Upload Photos

1,779,368 photos uploaded!

WunderBlogs® & News

Nearby

Air Quality

  Air Quality AQ Index Pollutant
Not available.

Snow Depth

Station Depth Elevation

Earthquake Activity

City Distance Mag. Time & Date
Minimum magnitude displayed is 2.5.

Coastal Water Temperatures

Place Temperature

Nearby Weather Stations